sensor_id;sensor_type;location;lat;lon;timestamp;pressure;altitude;pressure_sealevel;temperature;humidity
54806;BME280;62866;55.776;37.496;2024-02-26T00:01:07;100900.44;;;-0.26;67.88
54806;BME280;62866;55.776;37.496;2024-02-26T00:03:33;100885.41;;;-0.24;68.36
54806;BME280;62866;55.776;37.496;2024-02-26T00:06:01;100895.06;;;-0.24;68.46
54806;BME280;62866;55.776;37.496;2024-02-26T00:08:28;100885.78;;;-0.16;68.07
54806;BME280;62866;55.776;37.496;2024-02-26T00:10:53;100894.72;;;-0.18;68.26
54806;BME280;62866;55.776;37.496;2024-02-26T00:13:19;100892.81;;;-0.16;68.03
54806;BME280;62866;55.776;37.496;2024-02-26T00:15:45;100887.84;;;-0.21;66.42
54806;BME280;62866;55.776;37.496;2024-02-26T00:18:11;100889.81;;;-0.24;65.90
54806;BME280;62866;55.776;37.496;2024-02-26T00:20:37;100879.66;;;-0.30;66.72
54806;BME280;62866;55.776;37.496;2024-02-26T00:23:02;100884.75;;;-0.27;67.22
54806;BME280;62866;55.776;37.496;2024-02-26T00:25:28;100887.84;;;-0.21;67.40
54806;BME280;62866;55.776;37.496;2024-02-26T00:27:53;100880.13;;;-0.24;67.65
54806;BME280;62866;55.776;37.496;2024-02-26T00:30:19;100881.06;;;-0.25;65.43
54806;BME280;62866;55.776;37.496;2024-02-26T00:32:44;100879.50;;;-0.27;65.48
54806;BME280;62866;55.776;37.496;2024-02-26T00:35:10;100881.38;;;-0.29;65.76
54806;BME280;62866;55.776;37.496;2024-02-26T00:37:35;100878.81;;;-0.31;64.44
54806;BME280;62866;55.776;37.496;2024-02-26T00:40:01;100865.69;;;-0.45;64.84
54806;BME280;62866;55.776;37.496;2024-02-26T00:42:27;100872.53;;;-0.43;64.56
54806;BME280;62866;55.776;37.496;2024-02-26T00:44:52;100876.03;;;-0.42;63.55
54806;BME280;62866;55.776;37.496;2024-02-26T00:47:17;100877.97;;;-0.46;64.10
54806;BME280;62866;55.776;37.496;2024-02-26T00:49:43;100885.84;;;-0.46;64.38
54806;BME280;62866;55.776;37.496;2024-02-26T00:52:08;100870.00;;;-0.44;64.79
54806;BME280;62866;55.776;37.496;2024-02-26T00:54:34;100867.47;;;-0.46;64.59
54806;BME280;62866;55.776;37.496;2024-02-26T00:56:59;100868.13;;;-0.42;64.83
54806;BME280;62866;55.776;37.496;2024-02-26T00:59:25;100865.78;;;-0.47;65.13
54806;BME280;62866;55.776;37.496;2024-02-26T01:01:50;100866.53;;;-0.45;65.50
54806;BME280;62866;55.776;37.496;2024-02-26T01:04:16;100866.06;;;-0.37;66.03
54806;BME280;62866;55.776;37.496;2024-02-26T01:06:41;100859.78;;;-0.34;64.64
54806;BME280;62866;55.776;37.496;2024-02-26T01:09:07;100858.34;;;-0.40;64.23
54806;BME280;62866;55.776;37.496;2024-02-26T01:11:33;100870.56;;;-0.39;63.66
54806;BME280;62866;55.776;37.496;2024-02-26T01:13:59;100870.56;;;-0.39;64.07
54806;BME280;62866;55.776;37.496;2024-02-26T01:16:24;100858.34;;;-0.40;64.01
54806;BME280;62866;55.776;37.496;2024-02-26T01:18:50;100851.63;;;-0.44;64.73
54806;BME280;62866;55.776;37.496;2024-02-26T01:21:15;100864.94;;;-0.33;64.68
54806;BME280;62866;55.776;37.496;2024-02-26T01:23:41;100864.06;;;-0.33;64.35
54806;BME280;62866;55.776;37.496;2024-02-26T01:26:07;100864.75;;;-0.30;63.70
54806;BME280;62866;55.776;37.496;2024-02-26T01:28:33;100869.16;;;-0.30;64.06
54806;BME280;62866;55.776;37.496;2024-02-26T01:30:58;100870.69;;;-0.26;63.96
54806;BME280;62866;55.776;37.496;2024-02-26T01:33:26;100860.25;;;-0.28;63.28
54806;BME280;62866;55.776;37.496;2024-02-26T01:35:51;100869.25;;;-0.32;63.58
54806;BME280;62866;55.776;37.496;2024-02-26T01:38:18;100865.59;;;-0.44;64.48
54806;BME280;62866;55.776;37.496;2024-02-26T01:40:43;100871.50;;;-0.40;63.17
54806;BME280;62866;55.776;37.496;2024-02-26T01:43:09;100862.69;;;-0.39;63.99
54806;BME280;62866;55.776;37.496;2024-02-26T01:45:34;100862.22;;;-0.46;62.27
54806;BME280;62866;55.776;37.496;2024-02-26T01:48:00;100846.81;;;-0.52;62.27
54806;BME280;62866;55.776;37.496;2024-02-26T01:50:26;100862.38;;;-0.49;62.53
54806;BME280;62866;55.776;37.496;2024-02-26T01:52:53;100851.88;;;-0.49;63.50
54806;BME280;62866;55.776;37.496;2024-02-26T01:55:19;100858.66;;;-0.45;63.87
54806;BME280;62866;55.776;37.496;2024-02-26T01:57:48;100855.00;;;-0.42;64.15
54806;BME280;62866;55.776;37.496;2024-02-26T02:00:14;100853.94;;;-0.40;64.24
54806;BME280;62866;55.776;37.496;2024-02-26T02:02:41;100845.59;;;-0.46;64.51
54806;BME280;62866;55.776;37.496;2024-02-26T02:05:08;100850.47;;;-0.40;62.45
54806;BME280;62866;55.776;37.496;2024-02-26T02:07:35;100846.63;;;-0.49;62.94
54806;BME280;62866;55.776;37.496;2024-02-26T02:10:01;100850.19;;;-0.50;63.46
54806;BME280;62866;55.776;37.496;2024-02-26T02:12:27;100845.59;;;-0.46;63.27
54806;BME280;62866;55.776;37.496;2024-02-26T02:14:52;100852.00;;;-0.36;64.26
54806;BME280;62866;55.776;37.496;2024-02-26T02:17:19;100851.63;;;-0.30;63.87
54806;BME280;62866;55.776;37.496;2024-02-26T02:19:44;100857.81;;;-0.31;64.22
54806;BME280;62866;55.776;37.496;2024-02-26T02:22:10;100840.63;;;-0.36;64.59
54806;BME280;62866;55.776;37.496;2024-02-26T02:24:35;100779.34;;;-0.80;64.33
54806;BME280;62866;55.776;37.496;2024-02-26T02:27:01;100841.09;;;-0.44;64.36
54806;BME280;62866;55.776;37.496;2024-02-26T02:29:27;100841.03;;;-0.43;64.15
54806;BME280;62866;55.776;37.496;2024-02-26T02:31:53;100845.97;;;-0.38;64.52
54806;BME280;62866;55.776;37.496;2024-02-26T02:34:20;100844.97;;;-0.35;64.28
54806;BME280;62866;55.776;37.496;2024-02-26T02:36:51;100839.25;;;-0.42;63.95
54806;BME280;62866;55.776;37.496;2024-02-26T02:39:17;100838.84;;;-0.36;63.86
54806;BME280;62866;55.776;37.496;2024-02-26T02:41:43;100851.31;;;-0.40;63.93
54806;BME280;62866;55.776;37.496;2024-02-26T02:44:09;100851.53;;;-0.43;64.17
54806;BME280;62866;55.776;37.496;2024-02-26T02:46:34;100850.31;;;-0.37;64.45
54806;BME280;62866;55.776;37.496;2024-02-26T02:49:00;100851.91;;;-0.34;64.38
54806;BME280;62866;55.776;37.496;2024-02-26T02:51:26;100843.66;;;-0.43;62.64
54806;BME280;62866;55.776;37.496;2024-02-26T02:53:51;100836.13;;;-0.49;63.62
54806;BME280;62866;55.776;37.496;2024-02-26T02:56:17;100840.53;;;-0.49;64.13
54806;BME280;62866;55.776;37.496;2024-02-26T02:58:42;100842.41;;;-0.51;63.22
54806;BME280;62866;55.776;37.496;2024-02-26T03:01:08;100828.44;;;-0.52;63.55
54806;BME280;62866;55.776;37.496;2024-02-26T03:03:33;100840.53;;;-0.49;63.36
54806;BME280;62866;55.776;37.496;2024-02-26T03:05:59;100836.50;;;-0.55;62.75
54806;BME280;62866;55.776;37.496;2024-02-26T03:08:24;100832.16;;;-0.56;63.30
54806;BME280;62866;55.776;37.496;2024-02-26T03:10:51;100830.69;;;-0.60;63.29
54806;BME280;62866;55.776;37.496;2024-02-26T03:13:17;100836.78;;;-0.59;63.64
54806;BME280;62866;55.776;37.496;2024-02-26T03:15:42;100835.81;;;-0.58;63.54
54806;BME280;62866;55.776;37.496;2024-02-26T03:18:08;100839.28;;;-0.58;62.83
54806;BME280;62866;55.776;37.496;2024-02-26T03:20:33;100826.06;;;-0.56;62.87
54806;BME280;62866;55.776;37.496;2024-02-26T03:22:59;100829.94;;;-0.62;62.85
54806;BME280;62866;55.776;37.496;2024-02-26T03:25:24;100833.66;;;-0.66;63.12
54806;BME280;62866;55.776;37.496;2024-02-26T03:27:50;100839.56;;;-0.77;63.24
54806;BME280;62866;55.776;37.496;2024-02-26T03:30:16;100824.84;;;-0.79;61.68
54806;BME280;62866;55.776;37.496;2024-02-26T03:32:41;100829.06;;;-0.77;62.20
54806;BME280;62866;55.776;37.496;2024-02-26T03:35:07;100829.78;;;-0.74;62.27
54806;BME280;62866;55.776;37.496;2024-02-26T03:37:33;100817.50;;;-0.74;61.94
54806;BME280;62866;55.776;37.496;2024-02-26T03:39:58;100822.28;;;-0.81;61.66
54806;BME280;62866;55.776;37.496;2024-02-26T03:42:26;100826.91;;;-0.84;61.84
54806;BME280;62866;55.776;37.496;2024-02-26T03:44:51;100826.13;;;-0.86;62.25
54806;BME280;62866;55.776;37.496;2024-02-26T03:47:17;100827.31;;;-0.92;62.42
54806;BME280;62866;55.776;37.496;2024-02-26T03:49:43;100828.09;;;-0.90;62.90
54806;BME280;62866;55.776;37.496;2024-02-26T03:52:08;100834.00;;;-0.86;63.16
54806;BME280;62866;55.776;37.496;2024-02-26T03:54:34;100834.56;;;-0.81;62.52
54806;BME280;62866;55.776;37.496;2024-02-26T03:56:59;100811.56;;;-0.92;61.73
54806;BME280;62866;55.776;37.496;2024-02-26T03:59:25;100827.06;;;-0.87;62.48
54806;BME280;62866;55.776;37.496;2024-02-26T04:01:51;100830.31;;;-0.98;62.40
54806;BME280;62866;55.776;37.496;2024-02-26T04:04:17;100830.75;;;-1.05;62.81
54806;BME280;62866;55.776;37.496;2024-02-26T04:06:46;100832.00;;;-0.97;62.33
54806;BME280;62866;55.776;37.496;2024-02-26T04:09:14;100832.84;;;-0.96;62.14
54806;BME280;62866;55.776;37.496;2024-02-26T04:11:40;100827.59;;;-0.96;62.85
54806;BME280;62866;55.776;37.496;2024-02-26T04:14:05;100809.69;;;-1.04;62.67
54806;BME280;62866;55.776;37.496;2024-02-26T04:16:34;100803.28;;;-1.14;63.25
54806;BME280;62866;55.776;37.496;2024-02-26T04:19:01;100836.25;;;-0.94;63.26
54806;BME280;62866;55.776;37.496;2024-02-26T04:21:26;100833.69;;;-0.96;62.52
54806;BME280;62866;55.776;37.496;2024-02-26T04:23:52;100830.00;;;-1.07;63.43
54806;BME280;62866;55.776;37.496;2024-02-26T04:26:20;100830.28;;;-1.12;63.62
54806;BME280;62866;55.776;37.496;2024-02-26T04:28:46;100836.69;;;-1.02;63.54
54806;BME280;62866;55.776;37.496;2024-02-26T04:31:12;100835.09;;;-1.04;63.74
54806;BME280;62866;55.776;37.496;2024-02-26T04:33:37;100820.19;;;-1.04;62.72
54806;BME280;62866;55.776;37.496;2024-02-26T04:36:03;100827.03;;;-1.01;63.48
54806;BME280;62866;55.776;37.496;2024-02-26T04:38:29;100826.94;;;-1.00;62.89
54806;BME280;62866;55.776;37.496;2024-02-26T04:40:54;100838.03;;;-0.95;62.85
54806;BME280;62866;55.776;37.496;2024-02-26T04:43:19;100820.44;;;-1.08;63.20
54806;BME280;62866;55.776;37.496;2024-02-26T04:45:45;100827.59;;;-0.96;63.39
54806;BME280;62866;55.776;37.496;2024-02-26T04:48:10;100835.09;;;-0.90;63.18
54806;BME280;62866;55.776;37.496;2024-02-26T04:50:36;100833.25;;;-0.88;63.55
54806;BME280;62866;55.776;37.496;2024-02-26T04:53:01;100830.72;;;-0.90;63.71
54806;BME280;62866;55.776;37.496;2024-02-26T04:55:27;100838.13;;;-0.82;63.03
54806;BME280;62866;55.776;37.496;2024-02-26T04:57:52;100837.13;;;-0.80;62.56
54806;BME280;62866;55.776;37.496;2024-02-26T05:00:18;100827.72;;;-0.84;62.58
54806;BME280;62866;55.776;37.496;2024-02-26T05:02:43;100827.91;;;-0.87;62.67
54806;BME280;62866;55.776;37.496;2024-02-26T05:05:09;100832.88;;;-0.82;63.55
54806;BME280;62866;55.776;37.496;2024-02-26T05:07:40;100815.09;;;-0.77;63.00
54806;BME280;62866;55.776;37.496;2024-02-26T05:10:06;100830.94;;;-0.79;63.62
54806;BME280;62866;55.776;37.496;2024-02-26T05:12:32;100826.31;;;-0.75;62.82
54806;BME280;62866;55.776;37.496;2024-02-26T05:15:00;100830.75;;;-0.75;62.38
54806;BME280;62866;55.776;37.496;2024-02-26T05:17:25;100827.47;;;-0.79;62.59
54806;BME280;62866;55.776;37.496;2024-02-26T05:19:51;100818.16;;;-0.85;62.71
54806;BME280;62866;55.776;37.496;2024-02-26T05:22:16;100827.16;;;-0.74;63.11
54806;BME280;62866;55.776;37.496;2024-02-26T05:24:42;100814.53;;;-0.68;62.85
54806;BME280;62866;55.776;37.496;2024-02-26T05:27:08;100820.34;;;-0.63;63.06
54806;BME280;62866;55.776;37.496;2024-02-26T05:29:33;100820.72;;;-0.55;63.59
54806;BME280;62866;55.776;37.496;2024-02-26T05:31:59;100806.56;;;-0.52;63.07
54806;BME280;62866;55.776;37.496;2024-02-26T05:34:24;100818.00;;;-0.39;62.67
54806;BME280;62866;55.776;37.496;2024-02-26T05:36:50;100818.38;;;-0.31;63.00
54806;BME280;62866;55.776;37.496;2024-02-26T05:39:15;100804.03;;;-0.25;62.69
54806;BME280;62866;55.776;37.496;2024-02-26T05:41:41;100810.03;;;-0.23;62.17
54806;BME280;62866;55.776;37.496;2024-02-26T05:44:08;100812.19;;;-0.30;62.44
54806;BME280;62866;55.776;37.496;2024-02-26T05:46:35;100815.38;;;-0.25;62.81
54806;BME280;62866;55.776;37.496;2024-02-26T05:49:01;100807.84;;;-0.17;62.08
54806;BME280;62866;55.776;37.496;2024-02-26T05:51:26;100806.66;;;-0.11;62.80
54806;BME280;62866;55.776;37.496;2024-02-26T05:53:52;100817.63;;;-0.05;62.60
54806;BME280;62866;55.776;37.496;2024-02-26T05:56:23;100809.66;;;-0.03;62.06
54806;BME280;62866;55.776;37.496;2024-02-26T05:58:49;100811.88;;;0.03;61.70
54806;BME280;62866;55.776;37.496;2024-02-26T06:01:18;100817.81;;;0.07;62.14
54806;BME280;62866;55.776;37.496;2024-02-26T06:03:44;100833.94;;;0.15;62.33
54806;BME280;62866;55.776;37.496;2024-02-26T06:06:10;100826.91;;;0.15;62.52
54806;BME280;62866;55.776;37.496;2024-02-26T06:08:36;100821.91;;;0.25;62.66
54806;BME280;62866;55.776;37.496;2024-02-26T06:11:05;100838.13;;;0.31;62.50
54806;BME280;62866;55.776;37.496;2024-02-26T06:13:32;100833.50;;;0.35;61.96
54806;BME280;62866;55.776;37.496;2024-02-26T06:15:57;100834.66;;;0.31;62.46
54806;BME280;62866;55.776;37.496;2024-02-26T06:18:23;100831.63;;;0.37;61.62
54806;BME280;62866;55.776;37.496;2024-02-26T06:20:48;100837.53;;;0.41;61.85
54806;BME280;62866;55.776;37.496;2024-02-26T06:23:14;100836.25;;;0.33;61.83
54806;BME280;62866;55.776;37.496;2024-02-26T06:25:39;100837.38;;;0.29;61.65
54806;BME280;62866;55.776;37.496;2024-02-26T06:28:06;100832.13;;;0.29;61.40
54806;BME280;62866;55.776;37.496;2024-02-26T06:30:32;100817.75;;;0.21;61.40
54806;BME280;62866;55.776;37.496;2024-02-26T06:32:57;100823.56;;;0.26;62.31
54806;BME280;62866;55.776;37.496;2024-02-26T06:35:23;100833.63;;;0.33;62.04
54806;BME280;62866;55.776;37.496;2024-02-26T06:37:48;100831.53;;;0.38;62.29
54806;BME280;62866;55.776;37.496;2024-02-26T06:40:17;100835.63;;;0.43;62.39
54806;BME280;62866;55.776;37.496;2024-02-26T06:42:43;100827.66;;;0.44;62.14
54806;BME280;62866;55.776;37.496;2024-02-26T06:45:09;100827.72;;;0.57;62.19
54806;BME280;62866;55.776;37.496;2024-02-26T06:47:35;100818.97;;;0.83;61.93
54806;BME280;62866;55.776;37.496;2024-02-26T06:50:00;100827.91;;;0.81;61.70
54806;BME280;62866;55.776;37.496;2024-02-26T06:52:26;100823.47;;;0.81;61.33
54806;BME280;62866;55.776;37.496;2024-02-26T06:54:52;100825.50;;;0.90;61.73
54806;BME280;62866;55.776;37.496;2024-02-26T06:57:19;100843.84;;;1.04;61.84
54806;BME280;62866;55.776;37.496;2024-02-26T06:59:45;100830.72;;;1.17;61.93
54806;BME280;62866;55.776;37.496;2024-02-26T07:02:15;100831.13;;;1.11;60.36
54806;BME280;62866;55.776;37.496;2024-02-26T07:04:42;100846.63;;;1.16;60.95
54806;BME280;62866;55.776;37.496;2024-02-26T07:07:08;100814.19;;;1.15;60.61
54806;BME280;62866;55.776;37.496;2024-02-26T07:09:34;100824.31;;;1.34;61.23
54806;BME280;62866;55.776;37.496;2024-02-26T07:11:59;100815.88;;;1.41;60.86
54806;BME280;62866;55.776;37.496;2024-02-26T07:14:25;100815.75;;;1.43;59.71
54806;BME280;62866;55.776;37.496;2024-02-26T07:16:50;100819.25;;;1.56;59.86
54806;BME280;62866;55.776;37.496;2024-02-26T07:19:16;100823.03;;;1.77;60.44
54806;BME280;62866;55.776;37.496;2024-02-26T07:21:42;100816.69;;;2.29;59.11
54806;BME280;62866;55.776;37.496;2024-02-26T07:24:08;100806.69;;;2.45;58.96
54806;BME280;62866;55.776;37.496;2024-02-26T07:26:33;100828.00;;;2.55;58.56
54806;BME280;62866;55.776;37.496;2024-02-26T07:28:59;100820.63;;;2.71;59.41
54806;BME280;62866;55.776;37.496;2024-02-26T07:31:25;100823.78;;;2.76;59.71
54806;BME280;62866;55.776;37.496;2024-02-26T07:33:51;100801.31;;;2.71;58.96
54806;BME280;62866;55.776;37.496;2024-02-26T07:36:17;100828.63;;;2.82;59.50
54806;BME280;62866;55.776;37.496;2024-02-26T07:38:42;100821.38;;;3.08;59.92
54806;BME280;62866;55.776;37.496;2024-02-26T07:41:08;100817.25;;;3.39;60.28
54806;BME280;62866;55.776;37.496;2024-02-26T07:43:34;100827.50;;;3.77;56.29
54806;BME280;62866;55.776;37.496;2024-02-26T07:45:59;100815.84;;;3.79;55.93
54806;BME280;62866;55.776;37.496;2024-02-26T07:48:25;100819.44;;;3.78;56.25
54806;BME280;62866;55.776;37.496;2024-02-26T07:50:50;100818.13;;;3.62;56.94
54806;BME280;62866;55.776;37.496;2024-02-26T07:53:16;100825.19;;;3.61;58.25
54806;BME280;62866;55.776;37.496;2024-02-26T07:55:41;100813.19;;;3.57;58.34
54806;BME280;62866;55.776;37.496;2024-02-26T07:58:07;100828.56;;;3.63;58.16
54806;BME280;62866;55.776;37.496;2024-02-26T08:00:32;100826.53;;;3.56;57.95
54806;BME280;62866;55.776;37.496;2024-02-26T08:02:58;100823.88;;;3.56;58.38
54806;BME280;62866;55.776;37.496;2024-02-26T08:05:23;100816.91;;;3.55;59.38
54806;BME280;62866;55.776;37.496;2024-02-26T08:07:50;100808.63;;;3.48;56.48
54806;BME280;62866;55.776;37.496;2024-02-26T08:10:16;100812.06;;;3.37;56.35
54806;BME280;62866;55.776;37.496;2024-02-26T08:12:41;100821.13;;;3.00;57.05
54806;BME280;62866;55.776;37.496;2024-02-26T08:15:08;100815.63;;;2.79;58.01
54806;BME280;62866;55.776;37.496;2024-02-26T08:17:33;100820.41;;;2.74;59.37
54806;BME280;62866;55.776;37.496;2024-02-26T08:19:59;100799.63;;;2.70;60.14
54806;BME280;62866;55.776;37.496;2024-02-26T08:22:25;100792.66;;;2.68;59.27
54806;BME280;62866;55.776;37.496;2024-02-26T08:24:51;100793.06;;;2.75;59.43
54806;BME280;62866;55.776;37.496;2024-02-26T08:27:16;100795.28;;;2.68;55.52
54806;BME280;62866;55.776;37.496;2024-02-26T08:29:42;100799.13;;;2.64;57.03
54806;BME280;62866;55.776;37.496;2024-02-26T08:32:08;100805.69;;;2.83;57.76
54806;BME280;62866;55.776;37.496;2024-02-26T08:34:34;100809.59;;;3.01;58.36
54806;BME280;62866;55.776;37.496;2024-02-26T08:36:59;100803.25;;;3.15;56.02
54806;BME280;62866;55.776;37.496;2024-02-26T08:39:25;100785.88;;;3.46;56.64
54806;BME280;62866;55.776;37.496;2024-02-26T08:41:51;100781.34;;;3.81;56.64
54806;BME280;62866;55.776;37.496;2024-02-26T08:44:17;100780.97;;;3.97;56.37
54806;BME280;62866;55.776;37.496;2024-02-26T08:46:42;100761.75;;;3.72;56.44
54806;BME280;62866;55.776;37.496;2024-02-26T08:49:08;100783.72;;;4.17;56.82
54806;BME280;62866;55.776;37.496;2024-02-26T08:51:33;100783.44;;;4.32;57.09
54806;BME280;62866;55.776;37.496;2024-02-26T08:53:59;100781.44;;;4.45;55.52
54806;BME280;62866;55.776;37.496;2024-02-26T08:56:24;100774.97;;;4.70;54.93
54806;BME280;62866;55.776;37.496;2024-02-26T08:58:49;100784.91;;;4.88;55.33
54806;BME280;62866;55.776;37.496;2024-02-26T09:01:18;100775.75;;;4.92;56.14
54806;BME280;62866;55.776;37.496;2024-02-26T09:03:44;100785.91;;;5.08;56.87
54806;BME280;62866;55.776;37.496;2024-02-26T09:06:09;100774.94;;;5.43;57.59
54806;BME280;62866;55.776;37.496;2024-02-26T09:08:37;100776.34;;;5.47;53.25
54806;BME280;62866;55.776;37.496;2024-02-26T09:11:05;100786.84;;;5.28;54.56
54806;BME280;62866;55.776;37.496;2024-02-26T09:13:32;100776.09;;;5.50;54.48
54806;BME280;62866;55.776;37.496;2024-02-26T09:15:57;100767.00;;;5.43;50.83
54806;BME280;62866;55.776;37.496;2024-02-26T09:18:24;100777.09;;;5.08;50.19
54806;BME280;62866;55.776;37.496;2024-02-26T09:20:49;100768.91;;;4.58;49.85
54806;BME280;62866;55.776;37.496;2024-02-26T09:23:16;100771.66;;;4.13;50.30
54806;BME280;62866;55.776;37.496;2024-02-26T09:25:41;100774.47;;;3.90;51.30
54806;BME280;62866;55.776;37.496;2024-02-26T09:28:07;100780.03;;;3.75;53.62
54806;BME280;62866;55.776;37.496;2024-02-26T09:30:32;100782.06;;;3.61;52.77
54806;BME280;62866;55.776;37.496;2024-02-26T09:32:58;100778.66;;;3.36;53.37
54806;BME280;62866;55.776;37.496;2024-02-26T09:35:23;100775.44;;;3.33;54.47
54806;BME280;62866;55.776;37.496;2024-02-26T09:37:49;100779.63;;;3.24;54.47
54806;BME280;62866;55.776;37.496;2024-02-26T09:40:15;100776.47;;;3.08;55.00
54806;BME280;62866;55.776;37.496;2024-02-26T09:42:45;100791.34;;;2.98;54.90
54806;BME280;62866;55.776;37.496;2024-02-26T09:45:21;100786.09;;;2.85;55.12
54806;BME280;62866;55.776;37.496;2024-02-26T09:47:48;100773.31;;;2.68;55.02
54806;BME280;62866;55.776;37.496;2024-02-26T09:50:17;100782.66;;;2.61;55.37
54806;BME280;62866;55.776;37.496;2024-02-26T09:52:43;100774.88;;;2.59;55.84
54806;BME280;62866;55.776;37.496;2024-02-26T09:55:09;100781.69;;;2.51;55.43
54806;BME280;62866;55.776;37.496;2024-02-26T09:57:36;100779.56;;;2.43;55.66
54806;BME280;62866;55.776;37.496;2024-02-26T10:00:04;100775.94;;;2.33;56.42
54806;BME280;62866;55.776;37.496;2024-02-26T10:02:35;100776.50;;;2.25;56.56
54806;BME280;62866;55.776;37.496;2024-02-26T10:05:02;100771.44;;;2.22;56.22
54806;BME280;62866;55.776;37.496;2024-02-26T10:07:30;100774.06;;;2.22;56.83
54806;BME280;62866;55.776;37.496;2024-02-26T10:09:57;100766.25;;;2.21;56.69
54806;BME280;62866;55.776;37.496;2024-02-26T10:12:23;100771.03;;;2.16;56.97
54806;BME280;62866;55.776;37.496;2024-02-26T10:14:51;100775.91;;;2.09;56.60
54806;BME280;62866;55.776;37.496;2024-02-26T10:17:16;100766.25;;;1.97;56.93
54806;BME280;62866;55.776;37.496;2024-02-26T10:19:44;100760.03;;;1.98;57.00
54806;BME280;62866;55.776;37.496;2024-02-26T10:22:09;100773.09;;;2.00;57.77
54806;BME280;62866;55.776;37.496;2024-02-26T10:24:35;100754.75;;;1.98;57.68
54806;BME280;62866;55.776;37.496;2024-02-26T10:27:01;100761.16;;;2.07;57.19
54806;BME280;62866;55.776;37.496;2024-02-26T10:29:27;100758.41;;;2.08;57.04
54806;BME280;62866;55.776;37.496;2024-02-26T10:31:53;100742.41;;;1.99;57.05
54806;BME280;62866;55.776;37.496;2024-02-26T10:34:19;100756.19;;;2.02;57.53
54806;BME280;62866;55.776;37.496;2024-02-26T10:36:45;100760.34;;;1.94;57.86
54806;BME280;62866;55.776;37.496;2024-02-26T10:39:14;100757.19;;;1.88;57.40
54806;BME280;62866;55.776;37.496;2024-02-26T10:41:44;100761.44;;;1.78;57.61
54806;BME280;62866;55.776;37.496;2024-02-26T10:44:10;100755.41;;;1.76;58.09
54806;BME280;62866;55.776;37.496;2024-02-26T10:46:42;100758.50;;;1.70;57.71
54806;BME280;62866;55.776;37.496;2024-02-26T10:49:15;100756.19;;;1.66;58.04
54806;BME280;62866;55.776;37.496;2024-02-26T10:51:44;100760.63;;;1.65;58.40
54806;BME280;62866;55.776;37.496;2024-02-26T10:54:14;100759.53;;;1.68;58.23
54806;BME280;62866;55.776;37.496;2024-02-26T10:56:41;100750.94;;;1.66;58.55
54806;BME280;62866;55.776;37.496;2024-02-26T10:59:09;100753.47;;;1.67;58.26
54806;BME280;62866;55.776;37.496;2024-02-26T11:01:36;100757.03;;;1.66;58.66
54806;BME280;62866;55.776;37.496;2024-02-26T11:04:04;100729.31;;;1.61;58.72
54806;BME280;62866;55.776;37.496;2024-02-26T11:06:30;100743.31;;;1.74;58.47
54806;BME280;62866;55.776;37.496;2024-02-26T11:08:59;100733.94;;;1.70;58.32
54806;BME280;62866;55.776;37.496;2024-02-26T11:11:26;100737.59;;;1.80;58.66
54806;BME280;62866;55.776;37.496;2024-02-26T11:13:56;100737.06;;;1.87;58.01
54806;BME280;62866;55.776;37.496;2024-02-26T11:16:23;100724.25;;;1.94;57.88
54806;BME280;62866;55.776;37.496;2024-02-26T11:18:51;100730.19;;;1.85;57.94
54806;BME280;62866;55.776;37.496;2024-02-26T11:21:21;100740.50;;;2.01;58.27
54806;BME280;62866;55.776;37.496;2024-02-26T11:23:56;100739.81;;;2.10;57.69
54806;BME280;62866;55.776;37.496;2024-02-26T11:26:22;100721.88;;;2.15;57.93
54806;BME280;62866;55.776;37.496;2024-02-26T11:28:52;100740.09;;;2.18;57.78
54806;BME280;62866;55.776;37.496;2024-02-26T11:31:18;100713.72;;;2.18;58.05
54806;BME280;62866;55.776;37.496;2024-02-26T11:33:53;100724.38;;;2.40;56.68
54806;BME280;62866;55.776;37.496;2024-02-26T11:36:21;100738.19;;;2.20;56.87
54806;BME280;62866;55.776;37.496;2024-02-26T11:38:49;100730.06;;;1.99;57.48
54806;BME280;62866;55.776;37.496;2024-02-26T11:41:20;100731.31;;;1.94;58.25
54806;BME280;62866;55.776;37.496;2024-02-26T11:44:02;100715.09;;;1.87;57.90
54806;BME280;62866;55.776;37.496;2024-02-26T11:46:30;100715.56;;;1.68;58.17
54806;BME280;62866;55.776;37.496;2024-02-26T11:49:29;100698.56;;;1.48;58.29
54806;BME280;62866;55.776;37.496;2024-02-26T11:51:53;100727.75;;;1.58;58.68
54806;BME280;62866;55.776;37.496;2024-02-26T12:00:13;100715.63;;;1.92;58.33
54806;BME280;62866;55.776;37.496;2024-02-26T12:05:20;100703.44;;;2.02;58.10
54806;BME280;62866;55.776;37.496;2024-02-26T12:07:55;100713.13;;;2.14;58.13
54806;BME280;62866;55.776;37.496;2024-02-26T12:10:24;100715.56;;;2.05;57.76
54806;BME280;62866;55.776;37.496;2024-02-26T12:13:11;100701.75;;;2.01;58.15
54806;BME280;62866;55.776;37.496;2024-02-26T12:15:41;100692.19;;;2.00;58.51
54806;BME280;62866;55.776;37.496;2024-02-26T12:18:09;100705.53;;;2.10;58.17
54806;BME280;62866;55.776;37.496;2024-02-26T12:20:38;100709.81;;;2.00;58.67
54806;BME280;62866;55.776;37.496;2024-02-26T12:23:04;100703.25;;;1.92;58.74
54806;BME280;62866;55.776;37.496;2024-02-26T12:25:30;100712.38;;;1.88;59.02
54806;BME280;62866;55.776;37.496;2024-02-26T12:27:57;100714.16;;;1.88;58.81
54806;BME280;62866;55.776;37.496;2024-02-26T12:30:23;100713.31;;;1.87;58.59
54806;BME280;62866;55.776;37.496;2024-02-26T12:32:52;100701.44;;;1.69;59.32
54806;BME280;62866;55.776;37.496;2024-02-26T12:35:18;100706.69;;;1.82;59.44
54806;BME280;62866;55.776;37.496;2024-02-26T12:37:44;100714.38;;;1.85;59.07
54806;BME280;62866;55.776;37.496;2024-02-26T12:40:10;100690.34;;;1.77;58.90
54806;BME280;62866;55.776;37.496;2024-02-26T12:42:36;100699.09;;;1.77;58.70
54806;BME280;62866;55.776;37.496;2024-02-26T12:45:10;100624.28;;;1.31;59.01
54806;BME280;62866;55.776;37.496;2024-02-26T12:50:03;100707.97;;;1.76;58.70
54806;BME280;62866;55.776;37.496;2024-02-26T12:52:31;100697.03;;;1.70;58.78